Artesia ASC

2021-09-20 23:55:00

  • imperial
Date Time Air Temperature Relative Humidity Dewpoint Windchill Heat Index Wind Speed Wind Dir. Rain Solar Radiation Soil Temperature
2m 2m 3m 3m 10cm
US/Mountain F % F F F MPH deg in MJ/m^2 F
max avg avg
2021-09-20 00:05:00 72.5 37.0 44.7 72.5 72.5 4.7 6.0 5.1 204.3 188.9 0.00 0.0000000 78.4
2021-09-20 00:10:00 72.8 36.6 44.7 72.8 72.8 4.6 6.5 4.9 181.9 193.4 0.00 0.0000000 78.4
2021-09-20 00:15:00 72.7 36.7 44.7 72.7 72.7 4.0 5.5 4.5 212.1 195.1 0.00 0.0000000 78.3
2021-09-20 00:20:00 73.0 35.7 44.2 73.0 73.0 4.0 6.0 4.6 209.6 202.4 0.00 0.0000000 78.3
2021-09-20 00:25:00 71.4 40.2 46.0 71.4 71.4 4.4 5.1 4.1 269.0 248.5 0.00 0.0000000 78.3
2021-09-20 00:30:00 69.0 42.4 45.3 69.0 69.0 3.7 5.5 4.0 250.7 253.7 0.00 0.0000000 78.2
2021-09-20 00:35:00 70.7 39.1 44.6 70.7 70.7 3.7 4.7 4.0 198.0 212.1 0.00 0.0000000 78.2
2021-09-20 00:40:00 71.1 38.3 44.4 71.1 71.1 3.0 4.0 3.0 150.3 172.2 0.00 0.0000000 78.2
2021-09-20 00:45:00 69.8 40.3 44.6 69.8 69.8 4.0 4.0 3.3 169.3 152.1 0.00 0.0000000 78.1
2021-09-20 00:50:00 69.7 42.0 45.6 69.7 69.7 4.0 4.7 4.3 167.2 169.6 0.00 0.0000000 78.1
2021-09-20 00:55:00 68.6 43.1 45.3 68.6 68.6 3.7 4.2 3.8 174.9 170.6 0.00 0.0000000 78.1
2021-09-20 01:00:00 68.9 43.2 45.6 68.9 68.9 3.3 4.2 3.7 224.7 190.6 0.00 0.0000000 78.0
2021-09-20 01:05:00 70.0 39.7 44.4 70.0 70.0 3.3 3.8 3.0 179.4 200.6 0.00 0.0000000 78.0
2021-09-20 01:10:00 70.1 39.4 44.3 70.1 70.1 3.0 3.7 3.3 197.2 187.2 0.00 0.0000000 78.0
2021-09-20 01:15:00 70.4 38.8 44.1 70.4 70.4 3.0 3.0 2.6 168.0 192.0 0.00 0.0000000 77.9
2021-09-20 01:20:00 70.5 38.4 43.9 70.5 70.5 3.1 3.1 2.7 189.7 176.5 0.00 0.0000000 77.9
2021-09-20 01:25:00 70.8 39.5 45.0 70.8 70.8 4.2 5.1 3.9 218.8 217.4 0.00 0.0000000 77.9
2021-09-20 01:30:00 70.8 39.5 45.0 70.8 70.8 3.3 4.7 3.8 202.8 224.0 0.00 0.0000000 77.8
2021-09-20 01:35:00 71.0 39.2 44.9 71.0 71.0 2.6 4.0 3.1 193.6 195.3 0.00 0.0000000 77.8
2021-09-20 01:40:00 70.5 39.5 44.7 70.5 70.5 2.6 3.3 2.4 197.9 192.1 0.00 0.0000000 77.7
2021-09-20 01:45:00 69.9 40.8 45.0 69.9 69.9 1.5 2.6 2.0 247.7 226.0 0.00 0.0000000 77.7
2021-09-20 01:50:00 70.0 40.1 44.6 70.0 70.0 1.9 2.6 2.0 227.3 230.7 0.00 0.0000000 77.7
2021-09-20 01:55:00 69.6 40.7 44.6 69.6 69.6 2.2 2.4 1.8 252.3 242.6 0.00 0.0000000 77.6
2021-09-20 02:00:00 69.6 40.0 44.2 69.6 69.6 2.4 2.6 2.4 230.8 255.0 0.00 0.0000000 77.6
2021-09-20 02:05:00 70.7 40.5 45.5 70.7 70.7 3.3 3.3 2.5 287.7 245.6 0.00 0.0000000 77.5
2021-09-20 02:10:00 69.8 40.5 44.7 69.8 69.8 1.7 3.1 2.3 231.6 256.5 0.00 0.0000000 77.5
2021-09-20 02:15:00 71.0 37.8 44.0 71.0 71.0 3.3 3.3 2.4 187.1 207.3 0.00 0.0000000 77.5
2021-09-20 02:20:00 71.0 40.1 45.5 71.0 71.0 4.7 4.7 3.9 250.4 213.2 0.00 0.0000000 77.4
2021-09-20 02:25:00 67.3 47.1 46.4 67.3 67.3 4.7 4.9 4.5 243.9 244.7 0.00 0.0000000 77.4
2021-09-20 02:30:00 65.4 49.4 46.0 65.4 65.4 2.4 4.6 3.2 288.1 272.2 0.00 0.0000000 77.3
2021-09-20 02:35:00 65.7 47.6 45.3 65.7 65.7 3.0 3.1 2.1 300.9 303.4 0.00 0.0000000 77.3
2021-09-20 02:40:00 66.7 47.3 46.0 66.7 66.7 2.1 3.0 2.2 126.4 259.4 0.00 0.0000000 77.3
2021-09-20 02:45:00 66.6 46.2 45.3 66.6 66.6 0.8 2.2 1.3 268.3 262.8 0.00 0.0000000 77.2
2021-09-20 02:50:00 66.5 46.4 45.3 66.5 66.5 2.4 2.4 1.4 98.7 88.5 0.00 0.0000000 77.2
2021-09-20 02:55:00 67.4 45.4 45.6 67.4 67.4 4.4 4.4 3.2 89.1 92.5 0.00 0.0000000 77.2
2021-09-20 03:00:00 67.8 48.6 47.7 67.8 67.8 1.5 4.2 2.8 159.8 101.8 0.00 0.0000000 77.1
2021-09-20 03:05:00 65.0 51.8 46.9 65.0 65.0 3.0 5.6 3.0 331.0 307.0 0.00 0.0000000 77.1
2021-09-20 03:10:00 65.2 49.7 45.9 65.2 65.2 2.6 4.0 3.3 329.0 334.7 0.00 0.0000000 77.1
2021-09-20 03:15:00 64.8 49.3 45.4 64.8 64.8 2.6 3.0 2.2 314.2 309.4 0.00 0.0000000 77.1
2021-09-20 03:20:00 65.0 48.9 45.4 65.0 65.0 1.2 2.8 2.1 305.6 308.8 0.00 0.0000000 77.0
2021-09-20 03:25:00 65.4 49.2 45.8 65.4 65.4 2.4 3.0 2.4 316.6 302.3 0.00 0.0000000 76.9
2021-09-20 03:30:00 65.4 48.5 45.5 65.4 65.4 0.0 2.4 1.6 333.1 330.8 0.00 0.0000000 77.0
2021-09-20 03:35:00 65.5 48.5 45.6 65.5 65.5 1.3 1.3 0.6 252.8 260.3 0.00 0.0000000 76.9
2021-09-20 03:40:00 65.3 48.6 45.5 65.3 65.3 1.7 2.1 1.5 197.9 221.2 0.00 0.0000000 76.9
2021-09-20 03:45:00 65.2 52.6 47.4 65.2 65.2 1.3 1.9 1.4 148.6 179.8 0.00 0.0000000 76.9
2021-09-20 03:50:00 65.0 50.7 46.2 65.0 65.0 2.8 2.8 1.1 298.2 181.9 0.00 0.0000000 76.8
2021-09-20 03:55:00 64.9 51.1 46.4 64.9 64.9 2.2 3.5 2.9 334.1 311.4 0.00 0.0000000 76.8
2021-09-20 04:00:00 65.2 49.4 45.7 65.2 65.2 1.7 3.0 2.6 308.3 317.8 0.00 0.0000000 76.8
2021-09-20 04:05:00 65.0 51.1 46.5 65.0 65.0 1.5 2.1 1.2 252.6 268.2 0.00 0.0000000 76.7
2021-09-20 04:10:00 64.2 51.3 45.8 64.2 64.2 1.2 2.1 1.4 304.4 278.6 0.00 0.0000000 76.7
2021-09-20 04:15:00 64.5 50.3 45.6 64.5 64.5 2.8 2.8 1.7 306.0 308.0 0.00 0.0000000 76.7
2021-09-20 04:20:00 63.8 53.5 46.6 63.8 63.8 3.8 4.0 3.6 291.1 299.3 0.00 0.0000000 76.6
2021-09-20 04:25:00 63.3 53.0 45.9 63.3 63.3 1.5 3.8 2.4 228.5 267.9 0.00 0.0000000 76.6
2021-09-20 04:30:00 63.9 51.3 45.6 63.9 63.9 2.1 2.6 2.2 247.7 238.1 0.00 0.0000000 76.6
2021-09-20 04:35:00 63.8 51.6 45.7 63.8 63.8 2.4 2.6 2.1 270.3 253.2 0.00 0.0000000 76.5
2021-09-20 04:40:00 62.8 56.8 47.3 62.8 62.8 3.5 3.7 3.3 279.1 278.4 0.00 0.0000000 76.5
2021-09-20 04:45:00 61.8 58.8 47.2 61.8 61.8 3.0 4.0 3.5 275.9 269.1 0.00 0.0000000 76.4
2021-09-20 04:50:00 62.4 55.2 46.1 62.4 62.4 2.8 3.5 3.0 301.6 304.0 0.00 0.0000000 76.4
2021-09-20 04:55:00 63.5 52.5 45.8 63.5 63.5 1.5 3.0 2.1 286.4 289.0 0.00 0.0000000 76.4
2021-09-20 05:00:00 63.8 53.4 46.6 63.8 63.8 2.1 2.1 1.8 261.3 272.5 0.00 0.0000000 76.4
2021-09-20 05:05:00 63.4 55.0 47.0 63.4 63.4 2.6 2.8 2.4 248.7 251.9 0.00 0.0000000 76.3
2021-09-20 05:10:00 63.2 57.0 47.7 63.2 63.2 2.8 3.3 2.9 267.3 258.5 0.00 0.0000000 76.3
2021-09-20 05:15:00 62.8 59.9 48.7 62.8 62.8 1.7 3.0 2.4 264.2 266.2 0.00 0.0000000 76.3
2021-09-20 05:20:00 62.8 56.4 47.1 62.8 62.8 2.1 2.1 1.6 326.6 305.9 0.00 0.0000000 76.2
2021-09-20 05:25:00 64.2 52.5 46.4 64.2 64.2 1.5 2.1 1.7 91.3 35.2 0.00 0.0000000 76.2
2021-09-20 05:30:00 64.8 51.1 46.3 64.8 64.8 0.0 1.9 0.5 72.5 81.4 0.00 0.0000000 76.2
2021-09-20 05:35:00 64.5 55.2 48.1 64.5 64.5 3.1 3.1 1.2 264.7 253.1 0.00 0.0000000 76.1
2021-09-20 05:40:00 63.0 58.9 48.4 63.0 63.0 2.6 3.5 2.8 260.6 270.2 0.00 0.0000000 76.1
2021-09-20 05:45:00 62.7 57.0 47.2 62.7 62.7 2.4 3.1 2.6 236.5 249.1 0.00 0.0000000 76.1
2021-09-20 05:50:00 62.5 57.4 47.2 62.5 62.5 1.9 2.4 2.2 288.8 258.9 0.00 0.0000000 76.0
2021-09-20 05:55:00 62.5 56.3 46.8 62.5 62.5 3.5 3.7 3.0 281.1 277.9 0.00 0.0000000 76.0
2021-09-20 06:00:00 62.8 59.2 48.4 62.8 62.8 2.6 3.7 3.0 256.4 269.2 0.00 0.0000000 76.0
2021-09-20 06:05:00 62.3 59.7 48.2 62.3 62.3 1.3 2.6 2.1 262.1 264.4 0.00 0.0000000 76.0
2021-09-20 06:10:00 62.5 58.3 47.6 62.5 62.5 1.9 1.9 1.4 252.5 264.4 0.00 0.0000000 75.9
2021-09-20 06:15:00 62.9 57.0 47.4 62.9 62.9 2.6 2.6 1.9 247.0 251.2 0.00 0.0000000 75.9
2021-09-20 06:20:00 63.3 57.5 48.0 63.3 63.3 2.8 3.0 2.6 244.0 245.3 0.00 0.0000000 75.9
2021-09-20 06:25:00 63.8 56.4 47.9 63.8 63.8 2.6 3.3 2.9 227.8 242.0 0.00 0.0000000 75.8
2021-09-20 06:30:00 63.8 55.2 47.4 63.8 63.8 2.8 3.0 2.5 250.9 247.0 0.00 0.0000000 75.8
2021-09-20 06:35:00 64.0 54.8 47.3 64.0 64.0 2.6 3.1 2.8 255.2 262.5 0.00 0.0010000 75.8
2021-09-20 06:40:00 63.7 54.8 47.1 63.7 63.7 2.4 2.6 2.0 166.5 224.6 0.00 0.0020000 75.8
2021-09-20 06:45:00 62.5 58.1 47.6 62.5 62.5 2.1 4.0 3.0 184.4 154.3 0.00 0.0030000 75.7
2021-09-20 06:50:00 63.0 55.2 46.6 63.0 63.0 2.4 3.7 2.8 231.1 195.7 0.00 0.0050000 75.7
2021-09-20 06:55:00 64.2 53.1 46.7 64.2 64.2 2.8 3.0 2.7 226.4 229.0 0.00 0.0090000 75.7
2021-09-20 07:00:00 64.3 55.8 48.1 64.3 64.3 2.8 3.0 2.3 176.9 214.3 0.00 0.0160000 75.7
2021-09-20 07:05:00 63.7 55.5 47.5 63.7 63.7 2.8 4.4 3.2 238.2 212.3 0.00 0.0260000 75.7
2021-09-20 07:10:00 64.3 53.4 46.9 64.3 64.3 1.7 2.8 1.9 350.2 279.4 0.00 0.0370000 75.6
2021-09-20 07:15:00 65.4 52.2 47.4 65.4 65.4 2.4 2.8 2.2 1.0 1.2 0.00 0.0500000 75.6
2021-09-20 07:20:00 66.3 50.5 47.3 66.3 66.3 1.9 3.0 2.3 291.5 339.1 0.00 0.0650000 75.6
2021-09-20 07:25:00 66.1 55.7 49.8 66.1 66.1 2.1 2.2 1.9 325.5 281.4 0.00 0.0820000 75.5
2021-09-20 07:30:00 67.2 50.5 48.3 67.2 67.2 3.8 3.8 3.1 340.3 336.6 0.00 0.0990000 75.5
2021-09-20 07:35:00 68.5 52.1 50.2 68.5 68.5 3.5 4.4 4.1 319.6 329.2 0.00 0.1150000 75.5
2021-09-20 07:40:00 68.6 53.7 51.2 68.6 68.6 4.2 4.4 3.7 268.1 296.0 0.00 0.1300000 75.5
2021-09-20 07:45:00 69.3 51.2 50.5 69.3 69.3 4.2 5.3 4.3 293.5 306.4 0.00 0.1460000 75.4
2021-09-20 07:50:00 70.1 52.3 51.8 70.1 70.1 2.8 4.2 3.4 262.6 282.4 0.00 0.1610000 75.4
2021-09-20 07:55:00 72.0 49.9 52.3 72.0 72.0 1.5 3.5 2.5 239.5 253.0 0.00 0.1800000 75.4
2021-09-20 08:00:00 72.3 47.5 51.2 72.3 72.3 4.2 5.3 3.9 200.4 210.6 0.00 0.1960000 75.4
2021-09-20 08:05:00 72.7 45.2 50.3 72.7 72.7 4.0 4.4 3.3 206.3 216.4 0.00 0.2170000 75.4
2021-09-20 08:10:00 73.8 41.7 49.1 73.8 73.8 4.6 4.6 3.5 248.2 222.5 0.00 0.2330000 75.3
2021-09-20 08:15:00 74.3 42.9 50.3 74.3 74.3 3.5 4.4 3.6 284.7 247.6 0.00 0.2550000 75.3
2021-09-20 08:20:00 74.1 48.4 53.3 74.1 74.1 2.4 4.4 3.3 255.2 280.6 0.00 0.2850000 75.3
2021-09-20 08:25:00 74.4 46.8 52.7 74.4 74.4 3.5 4.6 3.6 271.1 283.7 0.00 0.3000000 75.3
2021-09-20 08:30:00 74.8 47.9 53.7 74.8 74.8 3.7 5.5 4.0 326.7 294.0 0.00 0.3380000 75.3
2021-09-20 08:35:00 75.4 44.2 52.1 75.4 75.4 4.7 5.5 3.9 305.6 317.4 0.00 0.4170000 75.3
2021-09-20 08:40:00 76.4 42.8 52.1 76.4 76.4 4.0 6.3 4.3 331.3 325.3 0.00 0.4920000 75.3
2021-09-20 08:45:00 76.8 43.1 52.7 76.8 76.8 6.7 8.0 6.3 321.9 332.0 0.00 0.2120000 75.3
2021-09-20 08:50:00 76.4 41.6 51.3 76.4 76.4 7.1 9.9 7.2 322.9 332.4 0.00 0.2790000 75.3
2021-09-20 08:55:00 76.0 43.4 52.2 76.0 76.0 5.8 7.6 5.5 312.5 322.9 0.00 0.3460000 75.2
2021-09-20 09:00:00 76.8 42.6 52.3 76.8 76.8 6.2 7.6 6.1 300.5 320.7 0.00 0.2320000 75.3
2021-09-20 09:05:00 77.3 47.5 55.8 77.3 77.3 4.6 7.8 5.5 322.1 309.4 0.00 0.2240000 75.3
2021-09-20 09:10:00 78.5 40.6 52.6 78.5 78.5 6.3 9.4 6.1 325.0 329.4 0.00 0.2390000 75.3
2021-09-20 09:15:00 77.9 44.9 54.8 77.9 77.9 5.1 8.1 6.5 315.2 319.2 0.00 0.2380000 75.3
2021-09-20 09:20:00 77.8 41.8 52.8 77.8 77.8 6.3 8.0 6.5 311.6 314.3 0.00 0.2240000 75.3
2021-09-20 09:25:00 78.0 40.5 52.0 78.0 78.0 9.7 9.7 7.5 326.1 317.6 0.00 0.2360000 75.3
2021-09-20 09:30:00 78.2 43.8 54.4 78.2 78.2 4.9 9.7 6.7 281.3 310.6 0.00 0.2790000 75.3
2021-09-20 09:35:00 78.9 41.9 53.8 78.9 78.9 5.5 7.6 6.4 309.8 308.4 0.00 0.2580000 75.3
2021-09-20 09:40:00 79.0 40.9 53.2 79.0 79.0 7.6 8.0 5.8 303.6 300.5 0.00 0.2550000 75.3
2021-09-20 09:45:00 80.0 38.4 52.4 80.0 80.0 8.0 8.7 6.4 329.3 309.4 0.00 0.1880000 75.4
2021-09-20 09:50:00 80.7 37.5 52.4 80.7 80.7 6.2 6.9 4.7 311.4 315.9 0.00 0.6450000 75.4
2021-09-20 09:55:00 82.0 38.1 54.0 82.0 82.0 5.5 7.6 5.8 344.3 327.3 0.00 0.2900000 75.4
2021-09-20 10:00:00 80.2 37.0 51.6 80.2 80.2 2.4 4.2 3.0 97.7 59.8 0.00 0.5950000 75.4
2021-09-20 10:05:00 83.2 36.1 53.6 83.2 83.2 3.1 4.9 2.9 57.7 36.2 0.00 0.6190000 75.5
2021-09-20 10:10:00 87.7 35.5 57.1 87.7 87.7 3.1 4.4 2.8 57.7 41.1 0.00 0.6260000 75.5
2021-09-20 10:15:00 86.4 31.7 52.9 86.4 86.4 2.8 4.9 2.7 333.6 49.9 0.00 0.6430000 75.5
2021-09-20 10:20:00 85.9 38.1 57.4 85.9 85.9 4.0 6.0 4.1 315.3 309.8 0.00 0.6510000 75.5
2021-09-20 10:25:00 85.4 35.7 55.2 85.4 85.4 4.4 8.3 5.4 344.6 331.6 0.00 0.6570000 75.6
2021-09-20 10:30:00 86.3 29.7 51.0 86.3 86.3 1.3 6.3 4.1 15.6 11.7 0.00 0.6580000 75.6
2021-09-20 10:35:00 89.0 36.0 58.6 89.0 89.0 2.1 5.6 2.9 343.8 317.4 0.00 0.6860000 75.7
2021-09-20 10:40:00 86.9 30.5 52.2 86.9 86.9 4.7 5.8 3.8 58.5 47.2 0.00 0.7310000 75.7
2021-09-20 10:45:00 87.6 28.0 50.5 87.6 87.6 4.2 6.9 4.3 34.3 41.9 0.00 0.1950000 75.7
2021-09-20 10:50:00 86.5 30.6 51.9 86.5 86.5 4.0 7.4 5.4 86.3 72.5 0.00 0.3590000 75.8
2021-09-20 10:55:00 85.6 25.8 46.6 85.6 85.6 3.3 7.1 5.1 71.2 65.4 0.00 0.8210000 75.8
2021-09-20 11:00:00 86.9 27.4 49.3 86.9 86.9 5.5 5.5 4.2 25.4 74.5 0.00 0.5600000 75.8
2021-09-20 11:05:00 85.4 28.7 49.3 85.4 85.4 2.6 7.1 4.6 66.9 65.4 0.00 0.7720000 75.9
2021-09-20 11:10:00 89.3 31.0 54.8 89.3 89.3 5.3 7.6 4.5 65.7 15.5 0.00 0.7420000 75.9
2021-09-20 11:15:00 84.3 29.0 48.6 84.3 84.3 4.6 6.2 4.7 0.3 40.9 0.00 0.7630000 76.0
2021-09-20 11:20:00 87.1 24.9 46.9 87.1 87.1 4.4 6.5 3.7 52.4 349.6 0.00 0.8070000 76.0
2021-09-20 11:25:00 87.7 26.3 48.9 87.7 87.7 6.0 7.4 4.8 39.6 39.5 0.00 0.8410000 76.0
2021-09-20 11:30:00 87.7 27.6 50.1 87.7 87.7 2.1 6.3 3.8 100.8 59.5 0.00 0.1910000 76.1
2021-09-20 11:35:00 85.5 26.0 46.7 85.5 85.5 3.8 5.6 3.2 66.5 29.9 0.00 0.7860000 76.1
2021-09-20 11:40:00 88.7 34.4 57.0 88.7 88.7 3.8 7.2 4.1 340.6 318.8 0.00 0.8030000 76.2
2021-09-20 11:45:00 85.0 25.9 46.1 85.0 85.0 6.9 14.9 6.4 30.4 345.4 0.00 0.7960000 76.3
2021-09-20 11:50:00 89.1 33.5 56.7 89.1 89.1 6.2 8.1 4.4 301.8 353.0 0.00 0.7910000 76.3
2021-09-20 11:55:00 91.5 34.3 59.4 91.5 91.5 6.2 8.7 6.7 321.4 310.8 0.00 0.7670000 76.4
2021-09-20 12:00:00 85.7 24.0 44.8 85.7 85.7 2.6 5.1 3.6 273.0 73.8 0.00 0.7740000 76.4
2021-09-20 12:05:00 88.7 28.0 51.4 88.7 88.7 9.2 10.6 6.3 313.6 329.4 0.00 0.7710000 76.5
2021-09-20 12:10:00 89.4 26.1 50.1 89.4 89.4 5.1 6.9 3.8 10.5 1.5 0.00 0.7720000 76.5
2021-09-20 12:15:00 90.1 29.3 53.9 90.1 90.1 8.3 8.3 5.4 0.7 6.6 0.00 0.7760000 76.6
2021-09-20 12:20:00 90.0 26.7 51.2 90.0 90.0 4.6 10.3 5.8 34.3 34.2 0.00 0.7800000 76.6
2021-09-20 12:25:00 88.6 22.4 45.4 88.6 88.6 3.7 5.8 4.1 54.7 66.9 0.00 0.7830000 76.7
2021-09-20 12:30:00 95.0 30.9 59.5 95.0 95.0 3.7 8.1 4.1 320.0 37.3 0.00 0.7840000 76.8
2021-09-20 12:35:00 89.9 26.4 50.9 89.9 89.9 5.5 8.7 5.0 22.2 331.0 0.00 0.7860000 76.8
2021-09-20 12:40:00 90.5 27.2 52.1 90.5 90.5 4.0 8.1 5.6 76.0 61.6 0.00 0.7870000 76.9
2021-09-20 12:45:00 91.9 24.3 50.2 91.9 91.9 5.3 7.8 4.5 60.3 52.7 0.00 0.7850000 77.0
2021-09-20 12:50:00 91.2 25.4 50.9 91.2 91.2 7.1 8.3 5.7 336.1 359.1 0.00 0.7890000 77.0
2021-09-20 12:55:00 93.9 28.3 56.2 93.9 93.9 4.0 6.3 3.9 347.5 22.9 0.00 0.7860000 77.1
2021-09-20 13:00:00 91.8 35.2 60.5 91.8 91.8 6.0 9.9 4.4 331.7 339.3 0.00 0.7890000 77.1
2021-09-20 13:05:00 91.1 20.9 45.6 91.1 91.1 3.5 11.2 6.3 268.6 336.5 0.00 0.7870000 77.2
2021-09-20 13:10:00 87.1 24.3 46.2 87.1 87.1 7.2 7.4 3.2 290.5 259.3 0.00 0.7870000 77.3
2021-09-20 13:15:00 94.9 29.1 57.8 94.9 94.9 4.7 7.4 4.4 347.9 303.1 0.00 0.7860000 77.3
2021-09-20 13:20:00 94.9 27.4 56.2 94.9 94.9 3.8 5.6 4.0 155.5 75.4 0.00 0.7840000 77.4
2021-09-20 13:25:00 91.7 21.0 46.1 91.7 91.7 1.7 7.6 4.1 276.8 309.4 0.00 0.7730000 77.5
2021-09-20 13:30:00 91.5 24.5 50.1 91.5 91.5 2.2 6.5 3.7 41.6 302.6 0.00 0.7720000 77.5
2021-09-20 13:35:00 92.1 28.2 54.5 92.1 92.1 6.5 6.9 4.5 327.1 294.5 0.00 0.7720000 77.6
2021-09-20 13:40:00 91.2 28.3 53.8 91.2 91.2 2.4 9.0 4.6 48.1 350.3 0.00 0.7690000 77.6
2021-09-20 13:45:00 92.0 25.3 51.5 92.0 92.0 3.3 9.0 4.9 231.4 108.0 0.00 0.7630000 77.7
2021-09-20 13:50:00 92.6 27.9 54.7 92.6 92.6 9.0 9.4 5.2 324.3 13.8 0.00 0.7600000 77.8
2021-09-20 13:55:00 94.2 29.1 57.2 94.2 94.2 3.7 12.1 7.1 16.7 307.7 0.00 0.7550000 77.9
2021-09-20 14:00:00 87.5 20.2 41.8 87.5 87.5 2.2 8.1 4.4 208.8 250.8 0.00 0.7510000 77.9
2021-09-20 14:05:00 92.7 24.2 50.9 92.7 92.7 4.9 6.3 3.6 321.3 158.2 0.00 0.7470000 78.0
2021-09-20 14:10:00 93.2 22.6 49.5 93.2 93.2 4.0 6.2 4.0 38.1 349.1 0.00 0.7440000 78.1
2021-09-20 14:15:00 93.1 23.6 50.5 93.1 93.1 5.5 9.9 5.2 8.2 357.0 0.00 0.7360000 78.2
2021-09-20 14:20:00 92.1 24.1 50.2 92.1 92.1 3.8 10.1 7.1 55.7 357.2 0.00 0.7290000 78.2
2021-09-20 14:25:00 92.6 23.0 49.4 92.6 92.6 4.2 10.1 5.8 127.9 99.1 0.00 0.7220000 78.3
2021-09-20 14:30:00 89.7 23.9 48.0 89.7 89.7 6.5 8.7 5.4 41.4 43.1 0.00 0.7140000 78.4
2021-09-20 14:35:00 94.0 23.6 51.3 94.0 94.0 5.6 7.8 4.9 98.2 48.3 0.00 0.7050000 78.5
2021-09-20 14:40:00 92.6 23.2 49.6 92.6 92.6 5.3 9.9 7.2 103.1 100.5 0.00 0.6940000 78.5
2021-09-20 14:45:00 94.0 22.1 49.6 94.0 94.0 6.2 7.6 5.4 84.6 101.1 0.00 0.6840000 78.6
2021-09-20 14:50:00 91.1 17.8 41.4 91.1 91.1 4.9 8.3 5.9 151.4 106.6 0.00 0.6730000 78.7
2021-09-20 14:55:00 96.5 26.7 56.7 96.5 96.5 8.0 8.0 5.2 108.6 100.0 0.00 0.6650000 78.8
2021-09-20 15:00:00 94.4 24.1 52.2 94.4 94.4 6.0 9.0 7.4 123.4 119.5 0.00 0.6550000 78.9
2021-09-20 15:05:00 93.7 22.6 49.9 93.7 93.7 3.1 8.8 5.5 254.9 163.6 0.00 0.6480000 78.9
2021-09-20 15:10:00 90.8 23.5 48.5 90.8 90.8 8.8 9.4 5.0 107.5 141.4 0.00 0.6360000 79.0
2021-09-20 15:15:00 94.7 25.2 53.7 94.7 94.7 6.7 10.3 7.7 130.7 114.3 0.00 0.6280000 79.1
2021-09-20 15:20:00 94.0 22.2 49.6 94.0 94.0 8.1 8.7 5.4 85.5 110.3 0.00 0.6170000 79.2
2021-09-20 15:25:00 91.7 20.9 46.1 91.7 91.7 4.9 8.0 5.5 79.8 78.1 0.00 0.6030000 79.2
2021-09-20 15:30:00 95.3 25.0 53.9 95.3 95.3 4.0 6.5 4.7 190.8 88.6 0.00 0.5930000 79.3
2021-09-20 15:35:00 94.9 18.3 45.2 94.9 94.9 4.4 6.3 4.1 110.1 127.4 0.00 0.5830000 79.4
2021-09-20 15:40:00 95.2 17.3 44.0 95.2 95.2 3.5 6.5 4.8 64.0 112.2 0.00 0.5670000 79.4
2021-09-20 15:45:00 94.4 22.0 49.7 94.4 94.4 2.2 6.3 3.9 41.9 64.7 0.00 0.5540000 79.5
2021-09-20 15:50:00 95.4 20.8 49.0 95.4 95.4 4.7 8.5 3.6 108.5 76.0 0.00 0.5400000 79.6
2021-09-20 15:55:00 94.3 21.0 48.3 94.3 94.3 2.2 7.2 5.3 83.7 63.1 0.00 0.5270000 79.6
2021-09-20 16:00:00 94.3 21.9 49.5 94.3 94.3 3.5 6.9 4.5 56.7 79.2 0.00 0.5130000 79.7
2021-09-20 16:05:00 94.9 22.4 50.6 94.9 94.9 4.6 8.0 4.3 4.2 9.7 0.00 0.4990000 79.7
2021-09-20 16:10:00 95.0 20.8 48.7 95.0 95.0 3.1 10.5 5.3 14.5 13.2 0.00 0.4850000 79.8
2021-09-20 16:15:00 95.8 20.2 48.6 95.8 95.8 5.1 8.0 5.4 22.3 16.5 0.00 0.4720000 79.8
2021-09-20 16:20:00 95.2 19.8 47.5 95.2 95.2 3.5 7.4 4.8 347.5 23.8 0.00 0.4580000 79.9
2021-09-20 16:25:00 95.1 20.7 48.7 95.1 95.1 1.5 3.8 2.5 292.1 354.6 0.00 0.4430000 79.9
2021-09-20 16:30:00 95.1 19.8 47.5 95.1 95.1 4.9 7.4 4.9 48.6 69.4 0.00 0.4270000 80.0
2021-09-20 16:35:00 96.1 20.8 49.6 96.1 96.1 2.2 8.8 4.4 61.5 24.9 0.00 0.4120000 80.0
2021-09-20 16:40:00 94.4 17.8 44.0 94.4 94.4 6.2 6.3 3.2 110.9 340.4 0.00 0.3970000 80.0
2021-09-20 16:45:00 95.4 20.3 48.3 95.4 95.4 1.9 5.5 3.1 85.5 69.9 0.00 0.3800000 80.1
2021-09-20 16:50:00 94.3 19.0 45.8 94.3 94.3 3.1 5.8 4.2 82.5 99.8 0.00 0.3640000 80.1
2021-09-20 16:55:00 95.1 20.4 48.3 95.1 95.1 4.9 5.6 3.0 308.2 51.4 0.00 0.3490000 80.2
2021-09-20 17:00:00 95.3 19.3 46.9 95.3 95.3 4.2 7.4 4.7 17.7 13.4 0.00 0.3330000 80.2
2021-09-20 17:05:00 95.4 18.7 46.2 95.4 95.4 4.9 6.0 4.7 44.4 32.7 0.00 0.3170000 80.2
2021-09-20 17:10:00 95.6 19.4 47.3 95.6 95.6 4.6 6.5 3.5 11.8 19.4 0.00 0.3010000 80.2
2021-09-20 17:15:00 94.7 19.5 46.8 94.7 94.7 4.0 5.6 3.9 47.9 46.7 0.00 0.2850000 80.3
2021-09-20 17:20:00 95.1 19.7 47.4 95.1 95.1 0.0 4.4 2.1 129.4 74.3 0.00 0.2680000 80.3
2021-09-20 17:25:00 95.9 18.3 46.1 95.9 95.9 2.6 3.0 1.5 101.4 32.9 0.00 0.2510000 80.3
2021-09-20 17:30:00 95.0 19.8 47.4 95.0 95.0 5.8 5.8 3.5 325.2 62.8 0.00 0.2350000 80.4
2021-09-20 17:35:00 93.7 19.4 45.7 93.7 93.7 3.1 5.8 4.3 41.4 335.5 0.00 0.2180000 80.4
2021-09-20 17:40:00 94.8 20.7 48.5 94.8 94.8 3.3 6.3 2.6 333.0 24.9 0.00 0.2020000 80.4
2021-09-20 17:45:00 94.0 21.4 48.6 94.0 94.0 4.0 7.4 4.6 332.3 354.5 0.00 0.1850000 80.4
2021-09-20 17:50:00 94.2 20.8 48.1 94.2 94.2 5.6 5.6 3.1 342.5 319.1 0.00 0.1700000 80.5
2021-09-20 17:55:00 93.1 19.5 45.4 93.1 93.1 2.8 5.5 3.8 325.5 344.2 0.00 0.1540000 80.5
2021-09-20 18:00:00 92.6 24.4 51.0 92.6 92.6 4.7 5.3 4.1 334.2 330.5 0.00 0.1390000 80.5
2021-09-20 18:05:00 92.5 21.9 48.0 92.5 92.5 2.6 5.1 4.1 338.2 338.9 0.00 0.1230000 80.5
2021-09-20 18:10:00 92.6 20.9 46.9 92.6 92.6 3.7 5.3 3.8 338.5 340.3 0.00 0.1070000 80.5
2021-09-20 18:15:00 92.2 23.1 49.1 92.2 92.2 3.8 4.4 3.9 323.3 327.7 0.00 0.0920000 80.5
2021-09-20 18:20:00 91.7 21.2 46.5 91.7 91.7 3.5 4.0 3.2 334.5 317.7 0.00 0.0750000 80.6
2021-09-20 18:25:00 92.2 21.3 47.0 92.2 92.2 2.4 3.5 2.8 2.4 356.0 0.00 0.0590000 80.6
2021-09-20 18:30:00 92.5 22.8 49.1 92.5 92.5 3.5 3.5 2.4 334.1 350.5 0.00 0.0440000 80.6
2021-09-20 18:35:00 91.9 22.6 48.3 91.9 91.9 2.6 3.5 2.8 336.3 335.5 0.00 0.0320000 80.6
2021-09-20 18:40:00 91.1 22.4 47.5 91.1 91.1 2.1 3.0 2.4 22.4 351.0 0.00 0.0230000 80.6
2021-09-20 18:45:00 90.8 23.4 48.4 90.8 90.8 1.5 2.4 2.1 7.0 352.5 0.00 0.0150000 80.6
2021-09-20 18:50:00 90.4 23.6 48.3 90.4 90.4 1.5 2.4 1.8 0.6 355.1 0.00 0.0100000 80.6
2021-09-20 18:55:00 89.7 23.7 47.7 89.7 89.7 2.8 2.8 2.0 1.0 345.4 0.00 0.0050000 80.6
2021-09-20 19:00:00 89.7 22.9 47.0 89.7 89.7 2.6 3.3 2.8 343.5 341.9 0.00 0.0030000 80.6
2021-09-20 19:05:00 89.2 24.1 47.8 89.2 89.2 1.7 2.2 1.8 332.2 336.5 0.00 0.0020000 80.6
2021-09-20 19:10:00 88.5 24.5 47.6 88.5 88.5 2.1 2.2 2.0 319.9 323.6 0.00 0.0010000 80.6
2021-09-20 19:15:00 87.4 26.3 48.6 87.4 87.4 2.4 2.4 2.0 293.1 302.4 0.00 0.0000000 80.6
2021-09-20 19:20:00 86.3 27.2 48.5 86.3 86.3 1.7 2.2 1.9 292.2 291.8 0.00 0.0000000 80.6
2021-09-20 19:25:00 84.9 28.3 48.5 84.9 84.9 1.9 1.9 1.6 309.7 309.6 0.00 0.0000000 80.6
2021-09-20 19:30:00 84.4 28.2 48.0 84.4 84.4 1.9 2.2 1.9 325.6 320.1 0.00 0.0000000 80.5
2021-09-20 19:35:00 84.0 29.4 48.8 84.0 84.0 1.9 3.0 2.3 323.1 330.0 0.00 0.0000000 80.5
2021-09-20 19:40:00 82.1 30.0 47.6 82.1 82.1 1.3 2.1 1.4 318.6 318.9 0.00 0.0000000 80.5
2021-09-20 19:45:00 81.3 31.3 48.1 81.3 81.3 1.5 1.9 1.6 326.5 325.6 0.00 0.0000000 80.5
2021-09-20 19:50:00 80.5 32.0 47.9 80.5 80.5 0.0 1.3 0.5 319.4 323.6 0.00 0.0000000 80.5
2021-09-20 19:55:00 79.9 33.0 48.3 79.9 79.9 1.0 1.2 0.4 305.5 301.9 0.00 0.0000000 80.5
2021-09-20 20:00:00 79.9 32.5 47.8 79.9 79.9 2.2 2.2 1.5 296.1 300.4 0.00 0.0000000 80.4
2021-09-20 20:05:00 78.7 37.4 50.5 78.7 78.7 5.3 6.2 3.1 239.1 263.4 0.00 0.0000000 80.4
2021-09-20 20:10:00 77.2 38.2 49.8 77.2 77.2 2.6 5.5 3.8 276.9 251.3 0.00 0.0000000 80.4
2021-09-20 20:15:00 78.2 35.8 48.9 78.2 78.2 3.3 4.2 3.7 272.6 278.1 0.00 0.0000000 80.3
2021-09-20 20:20:00 78.0 33.8 47.2 78.0 78.0 5.1 5.1 4.0 272.1 273.0 0.00 0.0000000 80.3
2021-09-20 20:25:00 76.4 36.8 48.0 76.4 76.4 4.2 4.9 4.2 255.0 261.4 0.00 0.0000000 80.3
2021-09-20 20:30:00 76.1 35.1 46.5 76.1 76.1 5.3 5.5 4.8 270.9 263.8 0.00 0.0000000 80.2
2021-09-20 20:35:00 76.0 32.2 44.2 76.0 76.0 5.3 6.3 5.5 271.8 273.4 0.00 0.0000000 80.2
2021-09-20 20:40:00 75.7 33.3 44.8 75.7 75.7 5.6 5.8 5.2 293.2 281.5 0.00 0.0000000 80.2
2021-09-20 20:45:00 75.4 33.2 44.5 75.4 75.4 6.2 11.5 6.8 314.7 306.9 0.00 0.0000000 80.2
2021-09-20 20:50:00 75.3 35.4 46.1 75.3 75.3 6.2 7.1 6.1 313.3 309.1 0.00 0.0000000 80.1
2021-09-20 20:55:00 76.0 36.3 47.3 76.0 76.0 6.5 7.4 6.4 321.3 318.0 0.00 0.0000000 80.0
2021-09-20 21:00:00 76.6 35.3 47.1 76.6 76.6 5.6 6.7 5.9 335.6 329.2 0.00 0.0000000 80.0
2021-09-20 21:05:00 77.8 35.1 48.0 77.8 77.8 5.6 6.7 6.0 320.5 326.3 0.00 0.0000000 79.9
2021-09-20 21:10:00 77.8 33.9 47.1 77.8 77.8 5.1 6.9 5.8 324.6 324.2 0.00 0.0000000 79.9
2021-09-20 21:15:00 76.8 35.3 47.3 76.8 76.8 6.5 6.9 6.1 323.8 326.3 0.00 0.0000000 79.9
2021-09-20 21:20:00 76.0 35.6 46.9 76.0 76.0 4.7 6.5 5.6 313.6 325.1 0.00 0.0000000 79.8
2021-09-20 21:25:00 75.8 36.9 47.6 75.8 75.8 5.6 5.6 5.0 300.9 303.4 0.00 0.0000000 79.8
2021-09-20 21:30:00 75.6 37.5 47.8 75.6 75.6 4.4 5.5 4.8 278.8 291.8 0.00 0.0000000 79.7
2021-09-20 21:35:00 74.6 34.7 44.9 74.6 74.6 5.5 5.5 4.8 297.6 294.4 0.00 0.0000000 79.7
2021-09-20 21:40:00 74.4 33.5 43.8 74.4 74.4 3.8 5.8 4.8 279.0 290.1 0.00 0.0000000 79.6
2021-09-20 21:45:00 74.4 33.5 43.8 74.4 74.4 4.7 5.6 4.8 289.1 283.8 0.00 0.0000000 79.6
2021-09-20 21:50:00 73.3 30.6 40.4 73.3 73.3 4.6 5.3 4.4 325.1 304.3 0.00 0.0000000 79.5
2021-09-20 21:55:00 73.2 28.8 38.8 73.2 73.2 4.6 4.9 4.2 313.9 323.1 0.00 0.0000000 79.5
2021-09-20 22:00:00 72.9 28.2 38.0 72.9 72.9 4.9 5.5 4.7 310.3 310.6 0.00 0.0000000 79.5
2021-09-20 22:05:00 73.2 26.5 36.7 73.2 73.2 4.2 5.8 4.5 318.2 305.9 0.00 0.0000000 79.4
2021-09-20 22:10:00 73.9 24.3 35.1 73.9 73.9 2.8 4.2 3.6 333.2 320.4 0.00 0.0000000 79.4
2021-09-20 22:15:00 74.5 25.5 36.9 74.5 74.5 2.2 3.0 1.9 38.2 30.0 0.00 0.0000000 79.4
2021-09-20 22:20:00 73.7 26.1 36.7 73.7 73.7 2.2 3.0 2.5 59.2 40.0 0.00 0.0000000 79.3
2021-09-20 22:25:00 73.9 25.6 36.5 73.9 73.9 2.4 3.8 2.4 35.4 25.2 0.00 0.0000000 79.3
2021-09-20 22:30:00 73.5 25.2 35.7 73.5 73.5 3.3 3.5 2.2 316.7 1.9 0.00 0.0000000 79.2
2021-09-20 22:35:00 73.5 24.2 34.7 73.5 73.5 4.2 4.7 4.1 347.7 336.3 0.00 0.0000000 79.2
2021-09-20 22:40:00 74.2 24.1 35.2 74.2 74.2 2.8 4.7 3.3 20.5 11.1 0.00 0.0000000 79.1
2021-09-20 22:45:00 73.6 26.1 36.7 73.6 73.6 1.9 3.1 2.4 38.0 41.1 0.00 0.0000000 79.1
2021-09-20 22:50:00 71.1 31.3 39.2 71.1 71.1 1.3 2.1 1.4 298.3 261.8 0.00 0.0000000 79.0
2021-09-20 22:55:00 70.8 29.0 37.0 70.8 70.8 2.1 2.4 1.6 275.7 254.4 0.00 0.0000000 79.0
2021-09-20 23:00:00 70.5 31.7 38.9 70.5 70.5 4.4 6.7 4.1 290.2 297.9 0.00 0.0000000 78.9
2021-09-20 23:05:00 69.9 31.2 38.0 69.9 69.9 4.6 7.6 5.2 300.2 303.3 0.00 0.0000000 78.9
2021-09-20 23:10:00 69.5 32.1 38.4 69.5 69.5 4.2 6.9 5.1 313.7 302.6 0.00 0.0000000 78.8
2021-09-20 23:15:00 70.0 29.2 36.4 70.0 70.0 4.0 5.6 4.1 30.9 338.1 0.00 0.0000000 78.8
2021-09-20 23:20:00 70.6 28.4 36.3 70.6 70.6 3.0 4.0 3.1 34.9 22.7 0.00 0.0000000 78.7
2021-09-20 23:25:00 70.8 28.4 36.4 70.8 70.8 3.5 4.0 3.3 0.4 22.8 0.00 0.0000000 78.7
2021-09-20 23:30:00 70.8 28.1 36.2 70.8 70.8 2.8 4.2 2.9 21.4 4.5 0.00 0.0000000 78.6
2021-09-20 23:35:00 70.8 29.0 37.0 70.8 70.8 1.2 3.5 2.2 20.9 31.0 0.00 0.0000000 78.6
2021-09-20 23:40:00 70.8 29.3 37.3 70.8 70.8 1.0 4.9 2.8 35.2 34.7 0.00 0.0000000 78.5
2021-09-20 23:45:00 72.0 29.4 38.4 72.0 72.0 4.6 6.3 4.1 32.3 15.8 0.00 0.0000000 78.5
2021-09-20 23:50:00 71.7 32.5 40.6 71.7 71.7 3.5 4.6 3.1 12.3 0.9 0.00 0.0000000 78.4
2021-09-20 23:55:00 69.7 37.0 42.3 69.7 69.7 3.0 5.1 3.2 313.6 334.6 0.00 0.0000000 78.4

Data is courtesy of the NM Climate Center. DO NOT USE IN LEGAL PROCEEDINGS.